Time;durP1;ratioP1;P1;durP2;ratioP2;P2;SDS_P1;SDS_P2;PMS_P1;PMS_P2;Temp;Humidity;BMP_temperature;BMP_pressure;BME280_temperature;BME280_humidity;BME280_pressure;Samples;Min_cycle;Max_cycle;Signal;HPM_P1;HPM_P2
2022/07/21 00:00:22;;;;;;;16.85;13.13;;;17.70;99.90;;;;;;5077475;28;20048;-78
2022/07/21 00:02:50;;;;;;;15.27;12.88;;;17.70;99.90;;;;;;5060027;28;20040;-77
2022/07/21 00:05:17;;;;;;;16.98;13.32;;;17.80;99.90;;;;;;5054578;28;20040;-77
2022/07/21 00:07:44;;;;;;;16.02;13.10;;;17.90;99.90;;;;;;5058508;28;20066;-77
2022/07/21 00:10:12;;;;;;;15.68;13.02;;;18.00;99.90;;;;;;5061231;28;20044;-76
2022/07/21 00:12:40;;;;;;;18.00;13.77;;;18.10;99.90;;;;;;5052191;28;20658;-77
2022/07/21 00:15:08;;;;;;;18.55;13.25;;;18.10;99.90;;;;;;5056432;28;20040;-77
2022/07/21 00:17:35;;;;;;;16.95;13.88;;;17.90;99.90;;;;;;5058845;28;20064;-79
2022/07/21 00:20:04;;;;;;;16.98;14.43;;;17.90;99.90;;;;;;5035837;28;20094;-76
2022/07/21 00:22:31;;;;;;;15.38;13.35;;;17.80;99.90;;;;;;5067664;28;20049;-78
2022/07/21 00:24:59;;;;;;;16.85;13.60;;;17.90;99.90;;;;;;5065957;28;20040;-78
2022/07/21 00:27:26;;;;;;;20.52;15.07;;;17.90;99.90;;;;;;5061493;28;20063;-76
2022/07/21 00:29:57;;;;;;;23.73;17.77;;;18.00;99.90;;;;;;5061180;28;20563;-78
2022/07/21 00:32:24;;;;;;;23.25;16.88;;;18.20;99.90;;;;;;5072052;28;20041;-76
2022/07/21 00:34:50;;;;;;;22.27;17.30;;;18.10;99.90;;;;;;5059445;28;20051;-76
2022/07/21 00:37:17;;;;;;;25.42;18.23;;;18.20;99.90;;;;;;5059333;28;20032;-77
2022/07/21 00:39:44;;;;;;;21.67;17.58;;;18.20;99.90;;;;;;5057739;28;20048;-76
2022/07/21 00:42:28;;;;;;;25.60;18.63;;;18.30;99.90;;;;;;5077441;28;20773;-76
2022/07/21 00:44:56;;;;;;;22.67;16.88;;;18.20;99.90;;;;;;5076352;28;20101;-76
2022/07/21 00:47:24;;;;;;;25.83;18.58;;;18.20;99.90;;;;;;5074055;28;20047;-76
2022/07/21 00:49:51;;;;;;;24.08;18.80;;;18.10;99.90;;;;;;5068801;28;20518;-76
2022/07/21 00:52:18;;;;;;;25.02;20.05;;;18.00;99.90;;;;;;5074263;28;20040;-78
2022/07/21 00:54:45;;;;;;;25.73;20.30;;;18.00;99.90;;;;;;5066283;28;20110;-77
2022/07/21 00:57:13;;;;;;;24.50;18.80;;;18.10;99.90;;;;;;5058584;28;20043;-78
2022/07/21 00:59:42;;;;;;;26.38;20.10;;;18.10;99.90;;;;;;5061431;28;20051;-77
2022/07/21 01:02:09;;;;;;;25.17;19.10;;;18.00;99.90;;;;;;5081072;28;20040;-78
2022/07/21 01:04:36;;;;;;;28.42;22.15;;;18.10;99.90;;;;;;5064176;28;20043;-77
2022/07/21 01:07:05;;;;;;;28.48;19.80;;;18.20;99.90;;;;;;5079675;28;20036;-77
2022/07/21 01:09:33;;;;;;;26.00;19.95;;;18.30;99.90;;;;;;5079657;28;20055;-76
2022/07/21 01:12:00;;;;;;;34.28;22.75;;;18.00;99.90;;;;;;5061635;28;20044;-78
2022/07/21 01:14:27;;;;;;;31.35;23.25;;;17.90;99.90;;;;;;5061323;28;20493;-76
2022/07/21 01:16:55;;;;;;;26.95;21.83;;;17.90;99.90;;;;;;5059834;28;20122;-77
2022/07/21 01:19:21;;;;;;;24.98;18.42;;;18.00;99.90;;;;;;5079907;28;20098;-77
2022/07/21 01:21:51;;;;;;;23.13;16.05;;;17.90;99.90;;;;;;5069006;28;20048;-77
2022/07/21 01:24:18;;;;;;;21.52;16.73;;;17.80;99.90;;;;;;5063193;28;20040;-76
2022/07/21 01:26:48;;;;;;;22.85;17.05;;;17.90;99.90;;;;;;5079818;28;20633;-77
2022/07/21 01:29:17;;;;;;;17.98;14.48;;;17.90;99.90;;;;;;5083585;28;20097;-78
2022/07/21 01:31:46;;;;;;;20.70;15.45;;;17.90;99.90;;;;;;5077297;28;20609;-78
2022/07/21 01:34:13;;;;;;;20.00;16.55;;;17.90;99.90;;;;;;5048680;28;20097;-77
2022/07/21 01:36:40;;;;;;;18.70;15.43;;;18.00;99.90;;;;;;5055203;28;20227;-77
2022/07/21 01:41:52;;;;;;;19.33;14.35;;;18.00;99.90;;;;;;5056424;28;20054;-77
2022/07/21 01:44:20;;;;;;;16.77;13.77;;;17.90;99.90;;;;;;5085193;28;20667;-78
2022/07/21 01:46:50;;;;;;;16.10;13.68;;;17.90;99.90;;;;;;5061181;28;20125;-77
2022/07/21 01:49:19;;;;;;;16.20;13.23;;;17.80;99.90;;;;;;5043128;28;20298;-76
2022/07/21 01:51:47;;;;;;;14.40;12.05;;;17.80;99.90;;;;;;5060876;28;20044;-78
2022/07/21 01:54:14;;;;;;;18.02;13.80;;;17.80;99.90;;;;;;5049618;28;20066;-77
2022/07/21 01:56:48;;;;;;;16.52;12.88;;;17.90;99.90;;;;;;5062473;28;20452;-78
2022/07/21 01:59:15;;;;;;;14.50;12.88;;;18.00;99.90;;;;;;5083388;28;20032;-77
2022/07/21 02:01:42;;;;;;;18.23;14.88;;;17.80;99.90;;;;;;5041664;28;20048;-78
2022/07/21 02:04:09;;;;;;;15.80;13.40;;;17.70;99.90;;;;;;5062888;28;20055;-77
2022/07/21 02:06:36;;;;;;;17.50;14.73;;;17.70;99.90;;;;;;5079550;28;20032;-78
2022/07/21 02:09:03;;;;;;;14.70;13.15;;;17.80;99.90;;;;;;5049252;28;20044;-78
2022/07/21 02:11:30;;;;;;;20.48;15.20;;;17.70;99.90;;;;;;5062598;28;20101;-78
2022/07/21 02:13:57;;;;;;;21.48;15.45;;;17.90;99.90;;;;;;5065690;28;20048;-75
2022/07/21 02:16:24;;;;;;;20.77;15.82;;;18.00;99.90;;;;;;5066846;28;20036;-77
2022/07/21 02:18:51;;;;;;;18.40;14.40;;;17.90;99.90;;;;;;5066777;28;20303;-76
2022/07/21 02:21:18;;;;;;;19.63;14.68;;;17.90;99.90;;;;;;5048871;28;20597;-79
2022/07/21 02:23:45;;;;;;;21.75;16.20;;;17.90;99.90;;;;;;5067844;28;20048;-76
2022/07/21 02:26:12;;;;;;;23.40;17.88;;;18.00;99.90;;;;;;5051178;28;20036;-77
2022/07/21 02:28:39;;;;;;;23.30;17.10;;;18.00;99.90;;;;;;5064489;28;20043;-76
2022/07/21 02:31:06;;;;;;;18.10;15.45;;;17.90;99.90;;;;;;5079317;28;20131;-79
2022/07/21 02:33:33;;;;;;;20.13;16.17;;;17.90;99.90;;;;;;5059583;28;20040;-76
2022/07/21 02:36:00;;;;;;;18.95;16.25;;;18.10;99.90;;;;;;5073982;28;20044;-79
2022/07/21 02:38:27;;;;;;;19.13;16.70;;;18.10;99.90;;;;;;5068850;28;20497;-76
2022/07/21 02:40:54;;;;;;;22.42;17.42;;;18.10;99.90;;;;;;5062208;28;20290;-77
2022/07/21 02:43:24;;;;;;;26.52;17.38;;;18.30;99.90;;;;;;5051657;28;20219;-76
2022/07/21 02:45:51;;;;;;;23.10;17.05;;;18.20;99.90;;;;;;5063520;28;20145;-78
2022/07/21 02:48:18;;;;;;;18.42;15.88;;;18.10;99.90;;;;;;5049954;28;20066;-76
2022/07/21 02:50:45;;;;;;;18.27;16.13;;;18.10;99.90;;;;;;5059108;28;20052;-75
2022/07/21 02:53:17;;;;;;;22.25;15.75;;;18.00;99.90;;;;;;5083928;28;20117;-79
2022/07/21 02:55:45;;;;;;;23.23;17.38;;;17.90;99.90;;;;;;5050749;28;20063;-77
2022/07/21 02:58:22;;;;;;;21.23;18.10;;;18.00;99.90;;;;;;5063164;28;20056;-76
2022/07/21 03:00:51;;;;;;;23.23;19.50;;;18.10;99.90;;;;;;5063146;28;20536;-78
2022/07/21 03:03:18;;;;;;;23.70;18.48;;;18.20;99.90;;;;;;5079669;28;20043;-77
2022/07/21 03:05:46;;;;;;;25.25;20.00;;;18.20;99.90;;;;;;5046857;28;20078;-76
2022/07/21 03:08:13;;;;;;;30.48;19.60;;;18.20;99.90;;;;;;5081580;28;20040;-76
2022/07/21 03:10:40;;;;;;;23.08;18.80;;;18.10;99.90;;;;;;5061795;28;20036;-76
2022/07/21 03:13:07;;;;;;;28.48;20.35;;;18.00;99.90;;;;;;5066162;28;20040;-75
2022/07/21 03:15:35;;;;;;;20.58;16.23;;;18.00;99.90;;;;;;5081184;28;20109;-77
2022/07/21 03:18:02;;;;;;;21.15;16.80;;;18.00;99.90;;;;;;5079162;28;20033;-76
2022/07/21 03:20:32;;;;;;;20.58;17.65;;;17.90;99.90;;;;;;5063884;28;20074;-76
2022/07/21 03:22:59;;;;;;;26.08;19.77;;;17.90;99.90;;;;;;5067218;28;20106;-76
2022/07/21 03:25:25;;;;;;;28.88;20.92;;;17.90;99.90;;;;;;5085201;28;20074;-76
2022/07/21 03:27:53;;;;;;;24.20;19.42;;;18.00;99.90;;;;;;5049993;28;20608;-78
2022/07/21 03:30:21;;;;;;;22.73;18.77;;;17.90;99.90;;;;;;5049977;28;20040;-77
2022/07/21 03:32:49;;;;;;;31.67;22.17;;;17.90;99.90;;;;;;5086962;28;20056;-78
2022/07/21 03:35:16;;;;;;;39.65;28.38;;;17.90;99.90;;;;;;5076405;28;20044;-77
2022/07/21 03:37:45;;;;;;;50.03;35.35;;;17.90;99.90;;;;;;5059614;28;20040;-77
2022/07/21 03:40:15;;;;;;;52.22;36.53;;;17.70;99.90;;;;;;5060353;28;20074;-76
2022/07/21 03:42:42;;;;;;;57.15;39.85;;;17.70;99.90;;;;;;5080204;28;20067;-76
2022/07/21 03:45:09;;;;;;;67.22;45.72;;;17.60;99.90;;;;;;5065755;28;20044;-76
2022/07/21 03:47:37;;;;;;;65.53;40.13;;;17.60;99.90;;;;;;5054735;28;20046;-76
2022/07/21 03:50:05;;;;;;;60.10;41.90;;;17.40;99.90;;;;;;5059803;28;20036;-76
2022/07/21 03:52:32;;;;;;;69.95;43.78;;;17.40;99.90;;;;;;5061499;28;20040;-77
2022/07/21 03:55:14;;;;;;;70.18;43.33;;;17.40;99.90;;;;;;5074609;28;20051;-77
2022/07/21 03:57:48;;;;;;;67.78;42.58;;;17.40;99.90;;;;;;5042191;28;20546;-77
2022/07/21 04:00:25;;;;;;;80.63;46.95;;;17.30;99.90;;;;;;5064026;28;20036;-77
2022/07/21 04:02:53;;;;;;;81.50;47.60;;;17.30;99.90;;;;;;5039407;28;20052;-77
2022/07/21 04:05:20;;;;;;;95.20;55.75;;;17.10;99.90;;;;;;5059938;28;20074;-76
2022/07/21 04:07:49;;;;;;;100.40;57.33;;;17.20;99.90;;;;;;5057535;28;20055;-76
2022/07/21 04:10:18;;;;;;;100.20;54.47;;;17.00;99.90;;;;;;5039345;28;20052;-76
2022/07/21 04:12:45;;;;;;;90.60;53.30;;;17.00;99.90;;;;;;5039510;28;20133;-77
2022/07/21 04:15:12;;;;;;;92.05;53.47;;;17.00;99.90;;;;;;5044730;28;20082;-76
2022/07/21 04:17:40;;;;;;;91.15;50.35;;;17.00;99.90;;;;;;5058076;28;20042;-76
2022/07/21 04:20:08;;;;;;;87.15;51.10;;;17.10;99.90;;;;;;5074165;28;20544;-76
2022/07/21 04:22:35;;;;;;;77.93;46.50;;;17.10;99.90;;;;;;5059060;28;20036;-77
2022/07/21 04:25:04;;;;;;;73.05;44.03;;;17.10;99.90;;;;;;5058299;28;20040;-76
2022/07/21 04:27:33;;;;;;;74.55;41.90;;;17.10;99.90;;;;;;5053777;28;20047;-76
2022/07/21 04:30:00;;;;;;;38.00;25.95;;;17.10;99.90;;;;;;5074946;28;20475;-76
2022/07/21 04:32:27;;;;;;;33.97;23.15;;;17.10;99.90;;;;;;5055206;28;20044;-76
2022/07/21 04:34:53;;;;;;;37.75;23.85;;;17.00;99.90;;;;;;5051022;28;20537;-76
2022/07/21 04:37:21;;;;;;;31.25;21.60;;;16.90;99.90;;;;;;5055297;28;20132;-77
2022/07/21 04:39:48;;;;;;;29.45;20.02;;;17.00;99.90;;;;;;5060721;28;20057;-77
2022/07/21 04:42:19;;;;;;;25.10;17.25;;;17.00;99.90;;;;;;5071904;28;20593;-77
2022/07/21 04:44:47;;;;;;;22.10;17.30;;;17.00;99.90;;;;;;5077994;28;20040;-76
2022/07/21 04:47:14;;;;;;;26.48;20.10;;;16.90;99.90;;;;;;5065013;28;20085;-77
2022/07/21 04:49:41;;;;;;;28.60;20.30;;;17.00;99.90;;;;;;5059428;28;20059;-77
2022/07/21 04:52:08;;;;;;;27.65;20.83;;;17.10;99.90;;;;;;5040187;28;20044;-77
2022/07/21 04:54:35;;;;;;;29.50;22.08;;;17.10;99.90;;;;;;5061134;28;20044;-77
2022/07/21 04:57:03;;;;;;;33.67;23.55;;;17.10;99.90;;;;;;5079511;28;20146;-76
2022/07/21 04:59:30;;;;;;;38.67;24.55;;;17.30;99.90;;;;;;5060931;28;20528;-77
2022/07/21 05:01:58;;;;;;;42.53;28.98;;;17.30;99.90;;;;;;5057655;28;20044;-77
2022/07/21 05:04:25;;;;;;;44.90;29.35;;;17.30;99.90;;;;;;5076857;28;20045;-77
2022/07/21 05:06:53;;;;;;;41.88;28.70;;;17.30;99.90;;;;;;5062398;28;20032;-77
2022/07/21 05:09:20;;;;;;;48.70;30.48;;;17.40;99.90;;;;;;5062379;28;20048;-78
2022/07/21 05:11:47;;;;;;;42.38;31.83;;;17.40;99.90;;;;;;5059994;28;20044;-79
2022/07/21 05:14:13;;;;;;;49.03;32.40;;;17.50;99.90;;;;;;5074886;28;20052;-77
2022/07/21 05:16:42;;;;;;;43.20;30.05;;;17.50;99.90;;;;;;5059634;28;20089;-76
2022/07/21 05:19:10;;;;;;;40.53;28.40;;;17.50;99.90;;;;;;5078881;28;20086;-76
2022/07/21 05:21:37;;;;;;;42.92;28.30;;;17.60;99.90;;;;;;5073729;28;20040;-76
2022/07/21 05:24:04;;;;;;;43.58;30.63;;;17.50;99.90;;;;;;5079711;28;20036;-76
2022/07/21 05:26:31;;;;;;;43.58;28.40;;;17.70;99.90;;;;;;5071275;28;20097;-76
2022/07/21 05:28:57;;;;;;;34.88;25.80;;;17.90;99.90;;;;;;5059124;28;20044;-76
2022/07/21 05:31:24;;;;;;;31.88;24.30;;;18.30;99.90;;;;;;5058838;28;20093;-76
2022/07/21 05:33:51;;;;;;;32.05;25.65;;;18.40;99.90;;;;;;5058263;28;20036;-75
2022/07/21 05:36:18;;;;;;;25.95;20.73;;;18.60;99.90;;;;;;5056478;28;20081;-76
2022/07/21 05:38:46;;;;;;;24.52;20.85;;;18.80;99.90;;;;;;5074345;28;20059;-76
2022/07/21 05:41:13;;;;;;;26.63;21.77;;;19.00;99.90;;;;;;5060823;28;20785;-77
2022/07/21 05:43:40;;;;;;;22.23;19.45;;;19.20;99.90;;;;;;5071205;28;20044;-75
2022/07/21 05:46:07;;;;;;;22.10;19.63;;;19.20;99.90;;;;;;5084522;28;20040;-76
2022/07/21 05:48:34;;;;;;;23.58;21.13;;;19.20;99.90;;;;;;5065899;28;20513;-76
2022/07/21 05:51:00;;;;;;;22.63;20.38;;;19.20;99.90;;;;;;5076468;28;20056;-76
2022/07/21 05:53:27;;;;;;;23.00;20.77;;;19.40;99.90;;;;;;5078339;28;20047;-76
2022/07/21 05:55:54;;;;;;;24.30;21.98;;;19.60;99.90;;;;;;5084455;28;20460;-76
2022/07/21 05:58:23;;;;;;;22.20;20.10;;;19.70;99.90;;;;;;5080771;28;20112;-76
2022/07/21 06:01:08;;;;;;;24.85;21.00;;;19.80;99.90;;;;;;5084762;28;20060;-78
2022/07/21 06:03:36;;;;;;;24.52;22.13;;;19.70;99.90;;;;;;5078436;28;20056;-77
2022/07/21 06:06:03;;;;;;;20.48;18.67;;;19.80;99.90;;;;;;5045683;28;20044;-77
2022/07/21 06:08:30;;;;;;;20.85;18.70;;;19.90;99.90;;;;;;5060737;28;20068;-77
2022/07/21 06:10:57;;;;;;;19.38;17.73;;;20.10;99.90;;;;;;5062048;28;20489;-78
2022/07/21 06:13:24;;;;;;;20.15;18.23;;;20.00;99.90;;;;;;5061664;28;20044;-78
2022/07/21 06:15:51;;;;;;;19.42;17.48;;;19.80;99.90;;;;;;5082541;28;20040;-77
2022/07/21 06:18:18;;;;;;;18.05;16.40;;;19.50;99.90;;;;;;5082852;28;20281;-77
2022/07/21 06:20:45;;;;;;;20.55;18.67;;;19.00;99.90;;;;;;5077879;28;20056;-76
2022/07/21 06:23:11;;;;;;;19.00;17.25;;;19.00;99.90;;;;;;5062546;28;20323;-77
2022/07/21 06:25:38;;;;;;;16.60;14.93;;;19.20;99.90;;;;;;5045608;28;20052;-77
2022/07/21 06:28:05;;;;;;;17.52;15.75;;;19.20;99.90;;;;;;5059234;28;20048;-77
2022/07/21 06:30:32;;;;;;;15.88;14.48;;;19.30;99.90;;;;;;5059868;28;20132;-77
2022/07/21 06:32:59;;;;;;;16.55;14.90;;;19.30;99.90;;;;;;5064630;28;20044;-77
2022/07/21 06:35:26;;;;;;;16.88;15.32;;;19.30;99.90;;;;;;5057224;28;20060;-77
2022/07/21 06:37:53;;;;;;;16.98;15.38;;;19.20;99.90;;;;;;5057887;28;20261;-78
2022/07/21 06:40:20;;;;;;;16.13;14.77;;;19.10;99.90;;;;;;5075374;28;20040;-78
2022/07/21 06:42:47;;;;;;;15.70;14.40;;;19.10;99.90;;;;;;5066849;28;20040;-77
2022/07/21 06:45:34;;;;;;;16.73;15.32;;;19.00;99.90;;;;;;5075679;28;20061;-78
2022/07/21 06:48:06;;;;;;;18.40;16.80;;;18.90;99.90;;;;;;5062893;28;20451;-78
2022/07/21 06:50:33;;;;;;;17.58;15.98;;;18.90;99.90;;;;;;5064287;28;20590;-77
2022/07/21 06:53:00;;;;;;;16.73;15.00;;;18.90;99.90;;;;;;5063023;28;20534;-79
2022/07/21 06:55:27;;;;;;;17.33;15.80;;;19.00;99.90;;;;;;5060874;28;20497;-79
2022/07/21 06:57:54;;;;;;;17.42;15.98;;;19.10;99.90;;;;;;5062635;28;20040;-77
2022/07/21 07:00:21;;;;;;;17.90;16.23;;;19.20;99.90;;;;;;5064669;28;20036;-79
2022/07/21 07:02:48;;;;;;;16.20;15.02;;;19.30;99.90;;;;;;5081285;28;20051;-78
2022/07/21 07:05:18;;;;;;;17.60;16.08;;;19.40;99.90;;;;;;5067243;28;20090;-79
2022/07/21 07:07:48;;;;;;;18.00;16.58;;;19.50;99.90;;;;;;5058621;28;20043;-78
2022/07/21 07:10:14;;;;;;;16.13;14.85;;;19.60;99.90;;;;;;5081079;28;20040;-78
2022/07/21 07:12:41;;;;;;;17.63;16.27;;;19.70;99.90;;;;;;5067231;28;20380;-78
2022/07/21 07:15:28;;;;;;;18.60;17.25;;;19.60;99.90;;;;;;5082596;28;20048;-79
2022/07/21 07:17:55;;;;;;;18.83;17.45;;;19.50;99.90;;;;;;5060798;28;20054;-79
2022/07/21 07:20:22;;;;;;;19.38;17.98;;;19.40;99.90;;;;;;5061829;28;20426;-79
2022/07/21 07:22:49;;;;;;;18.98;17.65;;;19.60;99.90;;;;;;5064458;28;20051;-79
2022/07/21 07:25:17;;;;;;;18.90;17.67;;;19.70;99.90;;;;;;5060541;28;20051;-79
2022/07/21 07:27:49;;;;;;;20.13;18.52;;;19.70;99.90;;;;;;5062632;28;20048;-80
2022/07/21 07:30:17;;;;;;;18.75;17.27;;;19.80;99.90;;;;;;5064724;28;20051;-80
2022/07/21 07:32:44;;;;;;;19.90;18.40;;;19.70;99.90;;;;;;5073848;28;20613;-80
2022/07/21 07:35:11;;;;;;;21.30;19.73;;;19.70;99.90;;;;;;5082714;28;20459;-80
2022/07/21 07:37:39;;;;;;;20.50;19.08;;;19.50;99.90;;;;;;5050252;28;20051;-80
2022/07/21 07:40:09;;;;;;;21.92;20.05;;;19.50;99.90;;;;;;5086159;28;20036;-79
2022/07/21 07:42:37;;;;;;;19.70;18.23;;;19.30;99.90;;;;;;5050305;28;21115;-80
2022/07/21 07:45:06;;;;;;;19.63;18.13;;;19.30;99.90;;;;;;5071772;28;20442;-80
2022/07/21 07:47:34;;;;;;;20.00;18.50;;;19.20;99.90;;;;;;5052930;28;20043;-79
2022/07/21 07:50:01;;;;;;;18.63;17.23;;;19.10;99.90;;;;;;5064884;28;20044;-81
2022/07/21 07:52:28;;;;;;;19.45;17.55;;;19.10;99.90;;;;;;5069746;28;20413;-80
2022/07/21 07:54:55;;;;;;;18.75;17.10;;;19.10;99.90;;;;;;5070394;28;20052;-81
2022/07/21 07:57:22;;;;;;;19.02;17.42;;;19.20;99.90;;;;;;5059677;28;20041;-81
2022/07/21 07:59:49;;;;;;;20.65;18.85;;;19.40;99.90;;;;;;5082682;28;20036;-81
2022/07/21 08:02:16;;;;;;;22.27;20.40;;;19.90;99.90;;;;;;5052671;28;20432;-80
2022/07/21 08:04:43;;;;;;;23.92;21.98;;;20.30;99.90;;;;;;5070115;28;20239;-81
2022/07/21 08:07:09;;;;;;;23.27;21.58;;;20.30;99.90;;;;;;5045853;28;20039;-82
2022/07/21 08:09:36;;;;;;;24.45;22.45;;;20.20;99.90;;;;;;5048467;28;20324;-81
2022/07/21 08:12:03;;;;;;;23.25;21.65;;;20.30;99.90;;;;;;5066822;28;20074;-81
2022/07/21 08:14:30;;;;;;;23.73;21.95;;;20.20;99.90;;;;;;5087535;28;20147;-82
2022/07/21 08:16:58;;;;;;;25.67;23.67;;;20.10;99.90;;;;;;5064113;28;20043;-81
2022/07/21 08:19:26;;;;;;;25.35;23.55;;;20.20;99.90;;;;;;5071703;28;20048;-81
2022/07/21 08:21:53;;;;;;;24.73;22.75;;;20.60;99.90;;;;;;5065336;28;20044;-81
2022/07/21 08:24:39;;;;;;;25.83;23.92;;;20.70;99.90;;;;;;5068828;28;20040;-81
2022/07/21 08:27:06;;;;;;;27.30;25.30;;;20.60;99.90;;;;;;5047375;28;20043;-81
2022/07/21 08:29:33;;;;;;;27.45;25.35;;;20.80;99.90;;;;;;5051854;28;20074;-81
2022/07/21 08:32:00;;;;;;;27.95;25.70;;;20.60;99.90;;;;;;5067191;28;20617;-81
2022/07/21 08:34:27;;;;;;;27.40;25.50;;;21.00;99.90;;;;;;5067858;28;20047;-80
2022/07/21 08:36:54;;;;;;;28.52;26.52;;;21.30;99.90;;;;;;5057935;28;20066;-79
2022/07/21 08:39:21;;;;;;;30.15;27.95;;;21.40;99.90;;;;;;5071375;28;20744;-80
2022/07/21 08:42:14;;;;;;;30.10;27.83;;;21.50;99.90;;;;;;5065248;28;20439;-80
2022/07/21 08:44:41;;;;;;;31.02;28.83;;;21.60;99.90;;;;;;5057366;28;20044;-80
2022/07/21 08:47:07;;;;;;;29.98;27.80;;;22.00;99.90;;;;;;5073204;28;20043;-81
2022/07/21 08:49:35;;;;;;;31.60;29.35;;;22.30;99.90;;;;;;5049008;28;20071;-80
2022/07/21 08:52:05;;;;;;;32.10;29.58;;;22.50;99.90;;;;;;5057272;28;20111;-79
2022/07/21 08:54:32;;;;;;;33.25;30.73;;;22.40;99.90;;;;;;5063620;28;20048;-79
2022/07/21 08:56:59;;;;;;;31.35;29.00;;;22.30;99.90;;;;;;5068604;28;20413;-79
2022/07/21 08:59:26;;;;;;;33.30;30.98;;;22.20;99.90;;;;;;5067068;28;20070;-80
2022/07/21 09:01:57;;;;;;;33.28;30.67;;;21.80;99.90;;;;;;5050782;28;20678;-78
2022/07/21 09:04:26;;;;;;;33.85;31.35;;;21.80;99.90;;;;;;5069481;28;20388;-79
2022/07/21 09:06:54;;;;;;;34.17;31.58;;;21.80;99.90;;;;;;5092028;28;20040;-81
2022/07/21 09:09:21;;;;;;;32.17;29.88;;;21.70;99.90;;;;;;5082080;28;20067;-79
2022/07/21 09:11:49;;;;;;;31.73;29.25;;;21.80;99.90;;;;;;5076847;28;20040;-81
2022/07/21 09:14:21;;;;;;;34.22;31.35;;;22.00;99.90;;;;;;5069354;28;20105;-80
2022/07/21 09:16:54;;;;;;;33.70;31.02;;;22.00;99.90;;;;;;5070400;28;20044;-80
2022/07/21 09:19:25;;;;;;;33.83;31.42;;;21.70;99.90;;;;;;5066181;28;20041;-80
2022/07/21 09:21:55;;;;;;;34.42;31.92;;;21.60;99.90;;;;;;5088399;28;20044;-80
2022/07/21 09:24:34;;;;;;;34.45;31.83;;;21.60;99.90;;;;;;5088261;28;20089;-80
2022/07/21 09:27:08;;;;;;;34.75;31.90;;;21.70;99.90;;;;;;5069193;28;20075;-80
2022/07/21 09:29:40;;;;;;;33.93;31.43;;;21.50;99.90;;;;;;5062727;28;20097;-79
2022/07/21 09:32:16;;;;;;;35.10;32.30;;;21.50;99.90;;;;;;5073178;28;20635;-81
2022/07/21 09:34:44;;;;;;;34.45;31.65;;;21.70;99.90;;;;;;5088396;28;20051;-80
2022/07/21 09:37:11;;;;;;;33.47;30.95;;;22.00;99.90;;;;;;5069272;28;20203;-78
2022/07/21 09:39:52;;;;;;;34.13;31.70;;;22.20;99.90;;;;;;5069278;28;20593;-80
2022/07/21 09:42:29;;;;;;;33.60;31.15;;;22.00;99.90;;;;;;5052661;28;20037;-80
2022/07/21 09:45:02;;;;;;;34.80;32.10;;;21.80;99.90;;;;;;5073281;28;20055;-79
2022/07/21 09:47:31;;;;;;;36.42;33.65;;;21.90;99.90;;;;;;5046548;28;20040;-80
2022/07/21 09:49:59;;;;;;;34.78;32.15;;;22.00;99.90;;;;;;5082957;28;20075;-79
2022/07/21 09:52:46;;;;;;;34.15;31.45;;;22.20;99.90;;;;;;5070217;28;20044;-79
2022/07/21 09:55:15;;;;;;;33.42;30.92;;;22.30;99.90;;;;;;5071571;28;20043;-78
2022/07/21 09:57:44;;;;;;;32.88;30.60;;;22.50;99.90;;;;;;5052977;28;20055;-78
2022/07/21 10:00:17;;;;;;;32.53;30.02;;;22.40;99.90;;;;;;5076303;28;20391;-77
2022/07/21 10:02:46;;;;;;;34.13;31.50;;;22.30;99.90;;;;;;5073457;28;20044;-78
2022/07/21 10:05:16;;;;;;;32.85;30.38;;;22.10;99.90;;;;;;5075183;28;20093;-80
2022/07/21 10:07:47;;;;;;;33.88;31.38;;;22.00;99.90;;;;;;5072877;28;20063;-79
2022/07/21 10:10:15;;;;;;;30.60;28.50;;;22.20;99.90;;;;;;5077599;28;20279;-78
2022/07/21 10:12:47;;;;;;;30.45;28.45;;;22.70;99.90;;;;;;5086050;28;20052;-77
2022/07/21 10:15:15;;;;;;;27.52;25.85;;;22.80;99.90;;;;;;5077126;28;20055;-78
2022/07/21 10:17:45;;;;;;;28.75;26.95;;;22.90;99.90;;;;;;5086394;28;20086;-77
2022/07/21 10:20:29;;;;;;;27.92;26.13;;;22.90;99.90;;;;;;5071170;28;20052;-78
2022/07/21 10:23:02;;;;;;;28.43;26.53;;;22.80;99.90;;;;;;5070760;28;20091;-79
2022/07/21 10:25:29;;;;;;;27.60;25.85;;;22.80;99.90;;;;;;5068176;28;20539;-79
2022/07/21 10:28:17;;;;;;;28.88;26.90;;;22.60;99.90;;;;;;5066174;28;20062;-78
2022/07/21 10:30:53;;;;;;;28.27;26.52;;;22.60;99.90;;;;;;5067746;28;20040;-78
2022/07/21 10:33:41;;;;;;;27.08;25.25;;;22.70;99.90;;;;;;5064154;28;20045;-77
2022/07/21 10:36:09;;;;;;;28.60;26.80;;;23.00;99.90;;;;;;5086372;28;20043;-77
2022/07/21 10:38:37;;;;;;;27.98;26.27;;;23.00;99.90;;;;;;5064349;28;20036;-79
2022/07/21 10:41:07;;;;;;;28.85;26.83;;;23.20;99.90;;;;;;5073738;28;20421;-79
2022/07/21 10:43:34;;;;;;;28.33;26.27;;;23.10;99.90;;;;;;5063698;28;20129;-79
2022/07/21 10:46:01;;;;;;;27.50;25.85;;;23.30;99.90;;;;;;5088007;28;20207;-79
2022/07/21 10:48:37;;;;;;;26.63;24.95;;;23.80;99.90;;;;;;5050819;28;20531;-79
2022/07/21 10:51:07;;;;;;;25.33;23.52;;;23.80;99.90;;;;;;5089863;28;20574;-78
2022/07/21 10:53:34;;;;;;;25.75;24.10;;;24.10;99.90;;;;;;5076258;28;20051;-77
2022/07/21 10:56:01;;;;;;;26.55;24.77;;;23.90;99.90;;;;;;5065825;28;20056;-79
2022/07/21 10:58:31;;;;;;;26.00;24.35;;;23.80;99.90;;;;;;5070145;28;20105;-80
2022/07/21 11:01:19;;;;;;;25.42;23.83;;;24.20;99.90;;;;;;5084698;28;20052;-80
2022/07/21 11:04:20;;;;;;;26.10;24.50;;;24.40;99.90;;;;;;5054283;28;20059;-78
2022/07/21 11:06:47;;;;;;;24.27;22.83;;;24.50;99.90;;;;;;5075180;28;20055;-79
2022/07/21 11:09:16;;;;;;;25.40;23.90;;;24.20;99.90;;;;;;5053615;28;20143;-79
2022/07/21 11:12:01;;;;;;;24.92;23.42;;;23.90;99.90;;;;;;5068827;28;20055;-78
2022/07/21 11:14:49;;;;;;;26.50;24.70;;;23.60;99.90;;;;;;5055412;28;20485;-78
2022/07/21 11:17:30;;;;;;;26.00;24.30;;;23.50;99.90;;;;;;5089140;28;20103;-78
2022/07/21 11:19:57;;;;;;;25.17;23.67;;;24.00;99.90;;;;;;5064716;28;20040;-78
2022/07/21 11:22:25;;;;;;;27.23;25.42;;;23.80;99.90;;;;;;5067055;28;20028;-77
2022/07/21 11:25:00;;;;;;;26.25;24.75;;;23.90;99.90;;;;;;5084117;28;20106;-76
2022/07/21 11:27:32;;;;;;;26.75;25.13;;;24.10;99.90;;;;;;5074948;28;20040;-77
2022/07/21 11:30:01;;;;;;;26.55;24.95;;;24.50;99.90;;;;;;5074297;28;20051;-78
2022/07/21 11:32:28;;;;;;;24.35;22.75;;;25.00;99.90;;;;;;5043066;28;20040;-77
2022/07/21 11:35:00;;;;;;;25.48;23.95;;;25.50;99.90;;;;;;5087618;28;20126;-77
2022/07/21 11:37:33;;;;;;;24.45;22.92;;;25.60;99.90;;;;;;5077428;28;20136;-77
2022/07/21 11:40:11;;;;;;;25.77;24.20;;;25.70;99.90;;;;;;5057649;28;20559;-77
2022/07/21 11:42:40;;;;;;;25.83;24.33;;;25.80;99.90;;;;;;5065405;28;20108;-76
2022/07/21 11:45:07;;;;;;;25.80;24.20;;;25.90;99.90;;;;;;5097142;28;20081;-78
2022/07/21 11:47:34;;;;;;;23.80;22.38;;;25.80;99.90;;;;;;5067446;28;20056;-79
2022/07/21 11:50:08;;;;;;;24.15;22.65;;;25.60;99.90;;;;;;5081525;28;20040;-77
2022/07/21 11:52:37;;;;;;;23.67;22.17;;;25.10;99.90;;;;;;5050291;28;20520;-76
2022/07/21 11:55:06;;;;;;;25.67;24.08;;;24.60;99.90;;;;;;5073920;28;20097;-77
2022/07/21 11:57:34;;;;;;;25.83;24.05;;;24.50;99.90;;;;;;5084930;28;20048;-77
2022/07/21 12:00:08;;;;;;;23.58;22.17;;;24.50;99.90;;;;;;5086731;28;20115;-77
2022/07/21 12:02:38;;;;;;;24.40;22.73;;;24.90;99.90;;;;;;5079458;28;20040;-76
2022/07/21 12:05:10;;;;;;;24.33;22.73;;;24.90;99.90;;;;;;5082321;28;20075;-78
2022/07/21 12:07:48;;;;;;;23.73;22.00;;;24.70;99.90;;;;;;5068340;28;20056;-78
2022/07/21 12:10:23;;;;;;;23.92;22.52;;;24.50;99.90;;;;;;5060856;28;20093;-77
2022/07/21 12:12:50;;;;;;;;;;;24.10;99.90;;;;;;5073069;28;20079;-76
2022/07/21 12:15:23;;;;;;;25.75;24.15;;;24.00;99.90;;;;;;5041075;28;19920;-76
2022/07/21 12:17:52;;;;;;;24.75;23.25;;;23.90;99.90;;;;;;5069026;28;20052;-76
2022/07/21 12:20:35;;;;;;;25.30;23.80;;;23.60;99.90;;;;;;5068794;28;20063;-77
2022/07/21 12:23:21;;;;;;;25.30;23.70;;;23.30;99.90;;;;;;5079456;28;20093;-76
2022/07/21 12:25:48;;;;;;;23.45;22.05;;;23.20;99.90;;;;;;5077203;28;20045;-76
2022/07/21 12:28:40;;;;;;;22.38;21.08;;;23.30;99.90;;;;;;5081003;28;20066;-78
2022/07/21 12:31:13;;;;;;;21.75;20.48;;;23.60;99.90;;;;;;5061711;28;20028;-76
2022/07/21 12:33:41;;;;;;;22.73;21.33;;;23.80;99.90;;;;;;5084983;28;20040;-78
2022/07/21 12:36:28;;;;;;;23.25;21.85;;;23.90;99.90;;;;;;5047739;28;20041;-77
2022/07/21 12:38:55;;;;;;;23.13;21.73;;;24.00;99.90;;;;;;5065278;28;20051;-77
2022/07/21 12:41:22;;;;;;;23.45;22.05;;;24.20;99.90;;;;;;5064031;28;20043;-77